sensor_id;sensor_type;location;lat;lon;timestamp;pressure;altitude;pressure_sealevel;temperature;humidity
10978;BME280;5542;48.272;10.794;2023-02-04T00:01:52;96656.41;;;4.77;96.19
10978;BME280;5542;48.272;10.794;2023-02-04T00:04:19;96650.09;;;4.72;96.76
10978;BME280;5542;48.272;10.794;2023-02-04T00:06:45;96646.69;;;4.71;97.06
10978;BME280;5542;48.272;10.794;2023-02-04T00:09:12;96650.59;;;4.67;97.56
10978;BME280;5542;48.272;10.794;2023-02-04T00:11:41;96642.66;;;4.60;98.18
10978;BME280;5542;48.272;10.794;2023-02-04T00:14:09;96639.00;;;4.70;97.74
10978;BME280;5542;48.272;10.794;2023-02-04T00:16:36;96639.50;;;4.65;97.56
10978;BME280;5542;48.272;10.794;2023-02-04T00:19:02;96643.47;;;4.53;98.99
10978;BME280;5542;48.272;10.794;2023-02-04T00:21:29;96635.97;;;4.58;98.76
10978;BME280;5542;48.272;10.794;2023-02-04T00:23:56;96641.66;;;4.61;98.21
10978;BME280;5542;48.272;10.794;2023-02-04T00:26:22;96648.50;;;4.62;98.34
10978;BME280;5542;48.272;10.794;2023-02-04T00:28:50;96662.63;;;4.68;98.30
10978;BME280;5542;48.272;10.794;2023-02-04T00:31:17;96658.41;;;4.67;98.07
10978;BME280;5542;48.272;10.794;2023-02-04T00:33:43;96666.56;;;4.64;98.43
10978;BME280;5542;48.272;10.794;2023-02-04T00:36:10;96671.31;;;4.60;98.91
10978;BME280;5542;48.272;10.794;2023-02-04T00:38:36;96675.50;;;4.70;99.17
10978;BME280;5542;48.272;10.794;2023-02-04T00:41:03;96678.28;;;4.68;98.83
10978;BME280;5542;48.272;10.794;2023-02-04T00:43:31;96680.56;;;4.63;99.52
10978;BME280;5542;48.272;10.794;2023-02-04T00:45:59;96674.22;;;4.66;99.75
10978;BME280;5542;48.272;10.794;2023-02-04T00:48:25;96675.97;;;4.73;99.50
10978;BME280;5542;48.272;10.794;2023-02-04T00:50:52;96668.47;;;4.78;98.56
10978;BME280;5542;48.272;10.794;2023-02-04T00:53:19;96672.88;;;4.70;98.73
10978;BME280;5542;48.272;10.794;2023-02-04T00:55:45;96667.84;;;4.68;99.34
10978;BME280;5542;48.272;10.794;2023-02-04T00:58:12;96672.06;;;4.69;99.58
10978;BME280;5542;48.272;10.794;2023-02-04T01:00:39;96678.59;;;4.73;99.31
10978;BME280;5542;48.272;10.794;2023-02-04T01:03:07;96673.56;;;4.72;99.82
10978;BME280;5542;48.272;10.794;2023-02-04T01:05:33;96684.59;;;4.74;100.00
10978;BME280;5542;48.272;10.794;2023-02-04T01:08:00;96687.00;;;4.83;100.00
10978;BME280;5542;48.272;10.794;2023-02-04T01:10:27;96688.28;;;4.96;98.13
10978;BME280;5542;48.272;10.794;2023-02-04T01:12:53;96680.66;;;4.86;98.94
10978;BME280;5542;48.272;10.794;2023-02-04T01:15:20;96675.28;;;4.79;98.85
10978;BME280;5542;48.272;10.794;2023-02-04T01:17:47;96694.31;;;4.88;98.65
10978;BME280;5542;48.272;10.794;2023-02-04T01:20:15;96684.88;;;4.95;98.95
10978;BME280;5542;48.272;10.794;2023-02-04T01:22:42;96684.25;;;4.85;99.35
10978;BME280;5542;48.272;10.794;2023-02-04T01:25:08;96695.44;;;4.94;99.73
10978;BME280;5542;48.272;10.794;2023-02-04T01:27:35;96702.91;;;5.05;98.84
10978;BME280;5542;48.272;10.794;2023-02-04T01:30:02;96717.94;;;4.95;98.83
10978;BME280;5542;48.272;10.794;2023-02-04T01:32:28;96719.56;;;4.96;100.00
10978;BME280;5542;48.272;10.794;2023-02-04T01:34:55;96717.78;;;4.96;99.44
10978;BME280;5542;48.272;10.794;2023-02-04T01:37:23;96711.25;;;5.00;98.85
10978;BME280;5542;48.272;10.794;2023-02-04T01:39:49;96715.19;;;4.88;99.90
10978;BME280;5542;48.272;10.794;2023-02-04T01:42:16;96724.47;;;4.91;100.00
10978;BME280;5542;48.272;10.794;2023-02-04T01:44:42;96721.50;;;4.94;100.00
10978;BME280;5542;48.272;10.794;2023-02-04T01:47:09;96731.22;;;5.08;98.29
10978;BME280;5542;48.272;10.794;2023-02-04T01:49:36;96734.25;;;4.88;98.95
10978;BME280;5542;48.272;10.794;2023-02-04T01:52:03;96732.78;;;4.94;98.83
10978;BME280;5542;48.272;10.794;2023-02-04T01:54:31;96741.72;;;4.92;99.48
10978;BME280;5542;48.272;10.794;2023-02-04T01:56:58;96735.88;;;4.90;99.65
10978;BME280;5542;48.272;10.794;2023-02-04T01:59:25;96743.81;;;5.04;99.47
10978;BME280;5542;48.272;10.794;2023-02-04T02:01:52;96745.63;;;5.04;99.11
10978;BME280;5542;48.272;10.794;2023-02-04T02:04:22;96751.47;;;5.06;99.25
10978;BME280;5542;48.272;10.794;2023-02-04T02:06:54;96755.19;;;5.11;98.54
10978;BME280;5542;48.272;10.794;2023-02-04T02:09:23;96754.69;;;5.08;98.66
10978;BME280;5542;48.272;10.794;2023-02-04T02:11:51;96758.31;;;5.07;98.38
10978;BME280;5542;48.272;10.794;2023-02-04T02:14:18;96765.50;;;4.97;98.89
10978;BME280;5542;48.272;10.794;2023-02-04T02:16:44;96754.19;;;5.12;98.46
10978;BME280;5542;48.272;10.794;2023-02-04T02:19:14;96756.47;;;5.16;97.40
10978;BME280;5542;48.272;10.794;2023-02-04T02:21:46;96769.91;;;5.04;98.05
10978;BME280;5542;48.272;10.794;2023-02-04T02:24:25;96767.81;;;4.92;98.58
10978;BME280;5542;48.272;10.794;2023-02-04T02:26:54;96782.31;;;4.94;99.33
10978;BME280;5542;48.272;10.794;2023-02-04T02:29:21;96787.34;;;4.87;99.76
10978;BME280;5542;48.272;10.794;2023-02-04T02:31:48;96773.00;;;5.00;99.05
10978;BME280;5542;48.272;10.794;2023-02-04T02:34:15;96774.81;;;4.91;98.82
10978;BME280;5542;48.272;10.794;2023-02-04T02:36:42;96786.88;;;4.84;100.00
10978;BME280;5542;48.272;10.794;2023-02-04T02:39:09;96796.97;;;4.87;100.00
10978;BME280;5542;48.272;10.794;2023-02-04T02:41:37;96796.78;;;4.97;99.70
10978;BME280;5542;48.272;10.794;2023-02-04T02:44:04;96799.22;;;4.98;99.89
10978;BME280;5542;48.272;10.794;2023-02-04T02:46:31;96796.47;;;5.00;100.00
10978;BME280;5542;48.272;10.794;2023-02-04T02:48:58;96793.81;;;5.08;99.73
10978;BME280;5542;48.272;10.794;2023-02-04T02:51:25;96786.66;;;5.10;97.84
10978;BME280;5542;48.272;10.794;2023-02-04T02:53:51;96799.09;;;4.92;98.47
10978;BME280;5542;48.272;10.794;2023-02-04T02:56:18;96800.69;;;4.93;99.95
10978;BME280;5542;48.272;10.794;2023-02-04T02:58:46;96804.91;;;5.10;98.42
10978;BME280;5542;48.272;10.794;2023-02-04T03:01:13;96810.00;;;5.03;98.66
10978;BME280;5542;48.272;10.794;2023-02-04T03:03:43;96802.75;;;5.22;97.72
10978;BME280;5542;48.272;10.794;2023-02-04T03:06:12;96810.44;;;5.07;99.11
10978;BME280;5542;48.272;10.794;2023-02-04T03:08:41;96813.22;;;5.13;98.85
10978;BME280;5542;48.272;10.794;2023-02-04T03:11:08;96799.19;;;5.23;98.50
10978;BME280;5542;48.272;10.794;2023-02-04T03:13:35;96806.81;;;5.24;97.38
10978;BME280;5542;48.272;10.794;2023-02-04T03:16:05;96817.63;;;5.13;97.45
10978;BME280;5542;48.272;10.794;2023-02-04T03:18:33;96814.34;;;5.19;97.16
10978;BME280;5542;48.272;10.794;2023-02-04T03:21:01;96822.84;;;5.13;97.28
10978;BME280;5542;48.272;10.794;2023-02-04T03:23:29;96827.88;;;5.06;97.15
10978;BME280;5542;48.272;10.794;2023-02-04T03:25:57;96824.28;;;5.07;97.46
10978;BME280;5542;48.272;10.794;2023-02-04T03:28:24;96821.56;;;4.93;97.37
10978;BME280;5542;48.272;10.794;2023-02-04T03:30:51;96835.09;;;4.96;97.54
10978;BME280;5542;48.272;10.794;2023-02-04T03:33:21;96841.91;;;4.97;96.47
10978;BME280;5542;48.272;10.794;2023-02-04T03:35:48;96847.31;;;4.96;96.37
10978;BME280;5542;48.272;10.794;2023-02-04T03:38:15;96851.88;;;4.85;95.69
10978;BME280;5542;48.272;10.794;2023-02-04T03:40:42;96854.47;;;4.94;95.83
10978;BME280;5542;48.272;10.794;2023-02-04T03:43:08;96860.53;;;4.78;95.82
10978;BME280;5542;48.272;10.794;2023-02-04T03:45:35;96861.81;;;4.82;95.75
10978;BME280;5542;48.272;10.794;2023-02-04T03:48:02;96870.94;;;4.78;95.71
10978;BME280;5542;48.272;10.794;2023-02-04T03:50:30;96879.75;;;4.69;96.14
10978;BME280;5542;48.272;10.794;2023-02-04T03:52:56;96881.53;;;4.76;95.43
10978;BME280;5542;48.272;10.794;2023-02-04T03:55:23;96887.56;;;4.69;95.03
10978;BME280;5542;48.272;10.794;2023-02-04T03:57:50;96884.63;;;4.63;95.84
10978;BME280;5542;48.272;10.794;2023-02-04T04:00:17;96892.94;;;4.59;96.08
10978;BME280;5542;48.272;10.794;2023-02-04T04:02:44;96890.66;;;4.56;96.70
10978;BME280;5542;48.272;10.794;2023-02-04T04:05:11;96894.06;;;4.65;96.07
10978;BME280;5542;48.272;10.794;2023-02-04T04:07:39;96899.13;;;4.66;95.67
10978;BME280;5542;48.272;10.794;2023-02-04T04:10:06;96901.75;;;4.66;96.15
10978;BME280;5542;48.272;10.794;2023-02-04T04:12:32;96906.47;;;4.71;95.75
10978;BME280;5542;48.272;10.794;2023-02-04T04:14:59;96910.03;;;4.61;95.91
10978;BME280;5542;48.272;10.794;2023-02-04T04:17:26;96908.25;;;4.62;96.17
10978;BME280;5542;48.272;10.794;2023-02-04T04:19:52;96914.75;;;4.58;96.60
10978;BME280;5542;48.272;10.794;2023-02-04T04:22:19;96910.66;;;4.55;96.14
10978;BME280;5542;48.272;10.794;2023-02-04T04:24:46;96918.47;;;4.55;96.43
10978;BME280;5542;48.272;10.794;2023-02-04T04:27:13;96908.22;;;4.54;96.29
10978;BME280;5542;48.272;10.794;2023-02-04T04:29:40;96916.06;;;4.54;96.46
10978;BME280;5542;48.272;10.794;2023-02-04T04:32:06;96917.69;;;4.63;95.47
10978;BME280;5542;48.272;10.794;2023-02-04T04:34:33;96926.81;;;4.59;95.01
10978;BME280;5542;48.272;10.794;2023-02-04T04:37:00;96929.25;;;4.52;95.46
10978;BME280;5542;48.272;10.794;2023-02-04T04:39:27;96923.22;;;4.68;94.55
10978;BME280;5542;48.272;10.794;2023-02-04T04:41:55;96936.25;;;4.60;93.75
10978;BME280;5542;48.272;10.794;2023-02-04T04:44:21;96928.91;;;4.55;93.50
10978;BME280;5542;48.272;10.794;2023-02-04T04:46:48;96943.06;;;4.45;93.92
10978;BME280;5542;48.272;10.794;2023-02-04T04:49:14;96946.47;;;4.37;93.96
10978;BME280;5542;48.272;10.794;2023-02-04T04:51:41;96943.72;;;4.39;93.69
10978;BME280;5542;48.272;10.794;2023-02-04T04:54:08;96951.19;;;4.33;93.83
10978;BME280;5542;48.272;10.794;2023-02-04T04:56:34;96949.88;;;4.29;93.89
10978;BME280;5542;48.272;10.794;2023-02-04T04:59:02;96952.97;;;4.33;93.42
10978;BME280;5542;48.272;10.794;2023-02-04T05:01:29;96960.28;;;4.29;93.60
10978;BME280;5542;48.272;10.794;2023-02-04T05:03:55;96959.66;;;4.27;94.11
10978;BME280;5542;48.272;10.794;2023-02-04T05:06:22;96954.56;;;4.26;94.12
10978;BME280;5542;48.272;10.794;2023-02-04T05:08:49;96959.47;;;4.29;93.22
10978;BME280;5542;48.272;10.794;2023-02-04T05:11:16;96958.66;;;4.28;92.70
10978;BME280;5542;48.272;10.794;2023-02-04T05:13:43;96963.53;;;4.23;92.74
10978;BME280;5542;48.272;10.794;2023-02-04T05:16:10;96966.75;;;4.17;92.42
10978;BME280;5542;48.272;10.794;2023-02-04T05:18:37;96973.59;;;4.18;92.34
10978;BME280;5542;48.272;10.794;2023-02-04T05:21:04;96973.75;;;4.17;91.72
10978;BME280;5542;48.272;10.794;2023-02-04T05:23:31;96976.03;;;4.20;91.21
10978;BME280;5542;48.272;10.794;2023-02-04T05:25:57;96988.50;;;4.00;91.46
10978;BME280;5542;48.272;10.794;2023-02-04T05:28:24;96991.41;;;3.97;91.77
10978;BME280;5542;48.272;10.794;2023-02-04T05:30:51;96995.00;;;3.96;92.04
10978;BME280;5542;48.272;10.794;2023-02-04T05:33:19;96995.63;;;3.98;91.84
10978;BME280;5542;48.272;10.794;2023-02-04T05:35:45;96993.16;;;3.88;91.94
10978;BME280;5542;48.272;10.794;2023-02-04T05:38:12;96990.53;;;3.88;91.58
10978;BME280;5542;48.272;10.794;2023-02-04T05:40:38;96989.09;;;3.85;91.61
10978;BME280;5542;48.272;10.794;2023-02-04T05:43:05;96995.41;;;3.83;91.65
10978;BME280;5542;48.272;10.794;2023-02-04T05:45:32;96999.78;;;3.82;91.49
10978;BME280;5542;48.272;10.794;2023-02-04T05:47:58;97009.09;;;3.85;90.84
10978;BME280;5542;48.272;10.794;2023-02-04T05:50:26;97011.66;;;3.77;90.88
10978;BME280;5542;48.272;10.794;2023-02-04T05:52:53;97008.81;;;3.70;91.37
10978;BME280;5542;48.272;10.794;2023-02-04T05:55:20;97014.09;;;3.78;90.64
10978;BME280;5542;48.272;10.794;2023-02-04T05:57:47;97019.09;;;3.72;90.75
10978;BME280;5542;48.272;10.794;2023-02-04T06:00:14;97020.53;;;3.66;90.68
10978;BME280;5542;48.272;10.794;2023-02-04T06:02:40;97021.44;;;3.57;90.89
10978;BME280;5542;48.272;10.794;2023-02-04T06:05:07;97023.69;;;3.52;90.96
10978;BME280;5542;48.272;10.794;2023-02-04T06:07:35;97022.03;;;3.51;90.55
10978;BME280;5542;48.272;10.794;2023-02-04T06:10:02;97023.63;;;3.44;90.83
10978;BME280;5542;48.272;10.794;2023-02-04T06:12:28;97028.66;;;3.45;89.96
10978;BME280;5542;48.272;10.794;2023-02-04T06:14:55;97031.06;;;3.39;90.79
10978;BME280;5542;48.272;10.794;2023-02-04T06:17:21;97035.66;;;3.45;90.50
10978;BME280;5542;48.272;10.794;2023-02-04T06:19:48;97042.44;;;3.38;90.42
10978;BME280;5542;48.272;10.794;2023-02-04T06:22:14;97041.91;;;3.34;90.69
10978;BME280;5542;48.272;10.794;2023-02-04T06:24:42;97049.03;;;3.32;90.76
10978;BME280;5542;48.272;10.794;2023-02-04T06:27:09;97048.09;;;3.33;90.26
10978;BME280;5542;48.272;10.794;2023-02-04T06:29:36;97052.41;;;3.24;90.41
10978;BME280;5542;48.272;10.794;2023-02-04T06:32:02;97053.88;;;3.27;90.57
10978;BME280;5542;48.272;10.794;2023-02-04T06:34:29;97054.84;;;3.26;90.71
10978;BME280;5542;48.272;10.794;2023-02-04T06:36:55;97063.47;;;3.26;90.84
10978;BME280;5542;48.272;10.794;2023-02-04T06:39:22;97073.03;;;3.26;90.42
10978;BME280;5542;48.272;10.794;2023-02-04T06:41:50;97080.84;;;3.26;90.23
10978;BME280;5542;48.272;10.794;2023-02-04T06:44:16;97086.34;;;3.23;90.28
10978;BME280;5542;48.272;10.794;2023-02-04T06:46:43;97093.03;;;3.25;90.44
10978;BME280;5542;48.272;10.794;2023-02-04T06:49:09;97090.59;;;3.24;90.37
10978;BME280;5542;48.272;10.794;2023-02-04T06:51:36;97095.25;;;3.20;90.39
10978;BME280;5542;48.272;10.794;2023-02-04T06:54:02;97096.25;;;3.19;90.38
10978;BME280;5542;48.272;10.794;2023-02-04T06:56:29;97101.44;;;3.19;90.40
10978;BME280;5542;48.272;10.794;2023-02-04T06:58:57;97098.84;;;3.19;90.58
10978;BME280;5542;48.272;10.794;2023-02-04T07:01:23;97101.44;;;3.19;90.68
10978;BME280;5542;48.272;10.794;2023-02-04T07:03:50;97114.28;;;3.21;90.67
10978;BME280;5542;48.272;10.794;2023-02-04T07:06:16;97117.53;;;3.23;90.75
10978;BME280;5542;48.272;10.794;2023-02-04T07:08:43;97122.91;;;3.21;90.96
10978;BME280;5542;48.272;10.794;2023-02-04T07:11:11;97128.78;;;3.23;90.91
10978;BME280;5542;48.272;10.794;2023-02-04T07:13:38;97129.06;;;3.20;90.75
10978;BME280;5542;48.272;10.794;2023-02-04T07:16:06;97132.63;;;3.19;90.87
10978;BME280;5542;48.272;10.794;2023-02-04T07:18:33;97135.72;;;3.23;90.92
10978;BME280;5542;48.272;10.794;2023-02-04T07:20:59;97131.06;;;3.26;90.66
10978;BME280;5542;48.272;10.794;2023-02-04T07:23:26;97133.44;;;3.20;90.96
10978;BME280;5542;48.272;10.794;2023-02-04T07:25:53;97140.94;;;3.23;90.75
10978;BME280;5542;48.272;10.794;2023-02-04T07:28:21;97145.63;;;3.19;91.13
10978;BME280;5542;48.272;10.794;2023-02-04T07:30:47;97152.63;;;3.19;91.42
10978;BME280;5542;48.272;10.794;2023-02-04T07:33:16;97152.63;;;3.19;91.55
10978;BME280;5542;48.272;10.794;2023-02-04T07:35:42;97153.28;;;3.21;91.69
10978;BME280;5542;48.272;10.794;2023-02-04T07:38:09;97151.50;;;3.21;91.95
10978;BME280;5542;48.272;10.794;2023-02-04T07:40:36;97155.88;;;3.21;92.13
10978;BME280;5542;48.272;10.794;2023-02-04T07:43:03;97157.38;;;3.23;92.05
10978;BME280;5542;48.272;10.794;2023-02-04T07:45:30;97160.47;;;3.27;92.23
10978;BME280;5542;48.272;10.794;2023-02-04T07:47:56;97158.41;;;3.30;92.48
10978;BME280;5542;48.272;10.794;2023-02-04T07:50:24;97163.47;;;3.32;92.65
10978;BME280;5542;48.272;10.794;2023-02-04T07:52:51;97169.19;;;3.36;92.89
10978;BME280;5542;48.272;10.794;2023-02-04T07:55:17;97168.91;;;3.39;92.82
10978;BME280;5542;48.272;10.794;2023-02-04T07:57:44;97172.41;;;3.47;92.87
10978;BME280;5542;48.272;10.794;2023-02-04T08:00:11;97173.50;;;3.45;92.67
10978;BME280;5542;48.272;10.794;2023-02-04T08:02:38;97169.94;;;3.46;92.78
10978;BME280;5542;48.272;10.794;2023-02-04T08:05:06;97173.22;;;3.48;92.49
10978;BME280;5542;48.272;10.794;2023-02-04T08:07:35;97182.50;;;3.50;92.52
10978;BME280;5542;48.272;10.794;2023-02-04T08:10:02;97188.50;;;3.51;92.64
10978;BME280;5542;48.272;10.794;2023-02-04T08:12:28;97178.78;;;3.53;91.76
10978;BME280;5542;48.272;10.794;2023-02-04T08:14:55;97184.22;;;3.59;91.66
10978;BME280;5542;48.272;10.794;2023-02-04T08:17:21;97194.97;;;3.65;91.60
10978;BME280;5542;48.272;10.794;2023-02-04T08:19:48;97189.22;;;3.71;90.88
10978;BME280;5542;48.272;10.794;2023-02-04T08:22:15;97200.78;;;3.76;90.58
10978;BME280;5542;48.272;10.794;2023-02-04T08:24:43;97196.63;;;3.83;89.85
10978;BME280;5542;48.272;10.794;2023-02-04T08:27:10;97199.13;;;3.93;89.30
10978;BME280;5542;48.272;10.794;2023-02-04T08:29:36;97197.22;;;3.95;88.83
10978;BME280;5542;48.272;10.794;2023-02-04T08:32:03;97204.22;;;3.95;88.63
10978;BME280;5542;48.272;10.794;2023-02-04T08:34:30;97196.31;;;4.04;88.10
10978;BME280;5542;48.272;10.794;2023-02-04T08:36:56;97193.53;;;4.06;87.86
10978;BME280;5542;48.272;10.794;2023-02-04T08:39:23;97209.63;;;4.01;88.09
10978;BME280;5542;48.272;10.794;2023-02-04T08:41:51;97208.50;;;4.04;88.43
10978;BME280;5542;48.272;10.794;2023-02-04T08:44:17;97208.88;;;4.09;88.49
10978;BME280;5542;48.272;10.794;2023-02-04T08:46:44;97223.53;;;4.10;88.62
10978;BME280;5542;48.272;10.794;2023-02-04T08:49:10;97223.72;;;4.17;88.43
10978;BME280;5542;48.272;10.794;2023-02-04T08:51:37;97223.13;;;4.23;88.13
10978;BME280;5542;48.272;10.794;2023-02-04T08:54:03;97229.81;;;4.25;88.21
10978;BME280;5542;48.272;10.794;2023-02-04T08:56:30;97228.72;;;4.28;88.22
10978;BME280;5542;48.272;10.794;2023-02-04T08:58:58;97228.91;;;4.34;88.19
10978;BME280;5542;48.272;10.794;2023-02-04T09:01:24;97226.78;;;4.56;84.08
10978;BME280;5542;48.272;10.794;2023-02-04T09:03:51;97233.28;;;4.60;83.19
10978;BME280;5542;48.272;10.794;2023-02-04T09:06:18;97232.06;;;4.46;84.27
10978;BME280;5542;48.272;10.794;2023-02-04T09:08:44;97233.28;;;4.60;83.53
10978;BME280;5542;48.272;10.794;2023-02-04T09:11:11;97231.38;;;4.62;83.18
10978;BME280;5542;48.272;10.794;2023-02-04T09:13:39;97229.69;;;4.53;84.48
10978;BME280;5542;48.272;10.794;2023-02-04T09:16:07;97232.00;;;4.56;85.01
10978;BME280;5542;48.272;10.794;2023-02-04T09:18:33;97230.81;;;4.76;82.57
10978;BME280;5542;48.272;10.794;2023-02-04T09:21:00;97220.31;;;4.68;82.85
10978;BME280;5542;48.272;10.794;2023-02-04T09:23:26;97222.97;;;4.76;81.90
10978;BME280;5542;48.272;10.794;2023-02-04T09:25:54;97229.19;;;4.83;82.11
10978;BME280;5542;48.272;10.794;2023-02-04T09:28:21;97227.59;;;4.91;82.16
10978;BME280;5542;48.272;10.794;2023-02-04T09:30:47;97232.66;;;4.92;83.04
10978;BME280;5542;48.272;10.794;2023-02-04T09:33:15;97235.09;;;4.94;83.37
10978;BME280;5542;48.272;10.794;2023-02-04T09:35:42;97229.47;;;5.06;82.06
10978;BME280;5542;48.272;10.794;2023-02-04T09:38:09;97222.50;;;5.15;80.74
10978;BME280;5542;48.272;10.794;2023-02-04T09:40:40;97220.69;;;5.16;81.38
10978;BME280;5542;48.272;10.794;2023-02-04T09:43:11;97226.47;;;5.27;80.80
10978;BME280;5542;48.272;10.794;2023-02-04T09:45:38;97230.09;;;5.43;81.34
10978;BME280;5542;48.272;10.794;2023-02-04T09:48:05;97235.94;;;5.36;81.50
10978;BME280;5542;48.272;10.794;2023-02-04T09:50:33;97231.75;;;5.52;78.90
10978;BME280;5542;48.272;10.794;2023-02-04T09:53:03;97243.13;;;5.43;79.79
10978;BME280;5542;48.272;10.794;2023-02-04T09:55:32;97246.72;;;5.50;79.65
10978;BME280;5542;48.272;10.794;2023-02-04T09:57:59;97254.75;;;5.64;78.24
10978;BME280;5542;48.272;10.794;2023-02-04T10:00:28;97257.38;;;5.56;78.33
10978;BME280;5542;48.272;10.794;2023-02-04T10:02:55;97259.63;;;5.51;79.50
10978;BME280;5542;48.272;10.794;2023-02-04T10:05:27;97260.47;;;5.60;79.56
10978;BME280;5542;48.272;10.794;2023-02-04T10:07:55;97256.06;;;5.60;80.05
10978;BME280;5542;48.272;10.794;2023-02-04T10:10:24;97257.56;;;5.71;79.38
10978;BME280;5542;48.272;10.794;2023-02-04T10:12:53;97262.94;;;5.70;79.73
10978;BME280;5542;48.272;10.794;2023-02-04T10:15:20;97267.34;;;5.77;77.27
10978;BME280;5542;48.272;10.794;2023-02-04T10:17:48;97265.41;;;5.87;75.49
10978;BME280;5542;48.272;10.794;2023-02-04T10:20:18;97247.13;;;5.71;75.56
10978;BME280;5542;48.272;10.794;2023-02-04T10:22:45;97252.00;;;5.74;77.11
10978;BME280;5542;48.272;10.794;2023-02-04T10:25:16;97261.63;;;5.74;76.79
10978;BME280;5542;48.272;10.794;2023-02-04T10:27:50;97263.78;;;5.70;77.63
10978;BME280;5542;48.272;10.794;2023-02-04T10:30:19;97268.16;;;5.78;78.47
10978;BME280;5542;48.272;10.794;2023-02-04T10:32:47;97258.94;;;5.92;76.77
10978;BME280;5542;48.272;10.794;2023-02-04T10:35:15;97260.53;;;5.84;78.08
10978;BME280;5542;48.272;10.794;2023-02-04T10:37:42;97260.56;;;5.93;78.03
10978;BME280;5542;48.272;10.794;2023-02-04T10:40:35;97263.94;;;5.77;78.55
10978;BME280;5542;48.272;10.794;2023-02-04T10:43:06;97256.88;;;5.69;78.53
10978;BME280;5542;48.272;10.794;2023-02-04T10:45:34;97262.78;;;5.71;78.76
10978;BME280;5542;48.272;10.794;2023-02-04T10:48:01;97268.84;;;5.88;78.72
10978;BME280;5542;48.272;10.794;2023-02-04T10:50:27;97260.88;;;5.89;79.43
10978;BME280;5542;48.272;10.794;2023-02-04T10:52:56;97268.09;;;6.04;77.79
10978;BME280;5542;48.272;10.794;2023-02-04T10:55:45;97264.81;;;6.02;76.54
10978;BME280;5542;48.272;10.794;2023-02-04T10:58:14;97260.91;;;6.06;77.94
10978;BME280;5542;48.272;10.794;2023-02-04T11:00:43;97271.19;;;6.07;76.88
10978;BME280;5542;48.272;10.794;2023-02-04T11:03:11;97274.97;;;6.13;75.95
10978;BME280;5542;48.272;10.794;2023-02-04T11:05:41;97269.41;;;6.16;75.05
10978;BME280;5542;48.272;10.794;2023-02-04T11:08:20;97264.19;;;6.08;75.37
10978;BME280;5542;48.272;10.794;2023-02-04T11:10:53;97262.53;;;5.99;75.82
10978;BME280;5542;48.272;10.794;2023-02-04T11:13:22;97263.81;;;6.03;75.08
10978;BME280;5542;48.272;10.794;2023-02-04T11:15:54;97267.09;;;6.05;73.21
10978;BME280;5542;48.272;10.794;2023-02-04T11:18:27;97264.50;;;6.05;74.38
10978;BME280;5542;48.272;10.794;2023-02-04T11:20:56;97260.06;;;5.97;74.55
10978;BME280;5542;48.272;10.794;2023-02-04T11:23:32;97263.34;;;6.15;73.54
10978;BME280;5542;48.272;10.794;2023-02-04T11:26:12;97255.53;;;5.99;74.59
10978;BME280;5542;48.272;10.794;2023-02-04T11:28:50;97259.25;;;5.97;75.65
10978;BME280;5542;48.272;10.794;2023-02-04T11:31:37;97267.09;;;6.21;72.87
10978;BME280;5542;48.272;10.794;2023-02-04T11:34:10;97264.31;;;6.06;73.60
10978;BME280;5542;48.272;10.794;2023-02-04T11:37:05;97268.41;;;6.01;74.88
10978;BME280;5542;48.272;10.794;2023-02-04T11:39:38;97272.97;;;6.07;74.90
10978;BME280;5542;48.272;10.794;2023-02-04T11:42:16;97257.66;;;6.04;75.94
10978;BME280;5542;48.272;10.794;2023-02-04T11:44:48;97261.91;;;6.13;75.62
10978;BME280;5542;48.272;10.794;2023-02-04T11:47:14;97253.38;;;6.03;73.14
10978;BME280;5542;48.272;10.794;2023-02-04T11:49:42;97258.94;;;6.16;72.27
10978;BME280;5542;48.272;10.794;2023-02-04T11:52:12;97261.38;;;6.01;73.48
10978;BME280;5542;48.272;10.794;2023-02-04T11:54:39;97252.22;;;5.89;71.92
10978;BME280;5542;48.272;10.794;2023-02-04T11:57:09;97254.59;;;5.58;71.79
10978;BME280;5542;48.272;10.794;2023-02-04T11:59:36;97257.16;;;4.99;74.90
10978;BME280;5542;48.272;10.794;2023-02-04T12:02:04;97259.59;;;5.01;76.70
10978;BME280;5542;48.272;10.794;2023-02-04T12:04:31;97253.09;;;5.05;77.66
10978;BME280;5542;48.272;10.794;2023-02-04T12:06:59;97255.94;;;5.20;78.51
10978;BME280;5542;48.272;10.794;2023-02-04T12:09:28;97254.56;;;5.42;78.28
10978;BME280;5542;48.272;10.794;2023-02-04T12:11:57;97245.97;;;5.65;77.64
10978;BME280;5542;48.272;10.794;2023-02-04T12:14:31;97244.75;;;5.94;74.06
10978;BME280;5542;48.272;10.794;2023-02-04T12:16:58;97247.19;;;6.04;71.72
10978;BME280;5542;48.272;10.794;2023-02-04T12:19:24;97248.97;;;5.95;71.88
10978;BME280;5542;48.272;10.794;2023-02-04T12:21:51;97256.81;;;5.95;72.19
10978;BME280;5542;48.272;10.794;2023-02-04T12:24:19;97262.00;;;5.87;70.84
10978;BME280;5542;48.272;10.794;2023-02-04T12:26:45;97254.13;;;5.79;70.73
10978;BME280;5542;48.272;10.794;2023-02-04T12:29:12;97255.94;;;5.78;71.90
10978;BME280;5542;48.272;10.794;2023-02-04T12:31:40;97255.47;;;5.91;70.13
10978;BME280;5542;48.272;10.794;2023-02-04T12:34:06;97248.59;;;5.82;69.95
10978;BME280;5542;48.272;10.794;2023-02-04T12:36:33;97253.41;;;5.95;70.00
10978;BME280;5542;48.272;10.794;2023-02-04T12:38:59;97254.69;;;6.07;67.83
10978;BME280;5542;48.272;10.794;2023-02-04T12:41:27;97256.34;;;6.08;65.82
10978;BME280;5542;48.272;10.794;2023-02-04T12:43:53;97261.66;;;5.82;68.48
10978;BME280;5542;48.272;10.794;2023-02-04T12:46:20;97266.28;;;5.96;65.63
10978;BME280;5542;48.272;10.794;2023-02-04T12:48:48;97262.34;;;5.92;65.91
10978;BME280;5542;48.272;10.794;2023-02-04T12:51:16;97260.47;;;5.60;66.46
10978;BME280;5542;48.272;10.794;2023-02-04T12:53:42;97266.66;;;5.59;68.61
10978;BME280;5542;48.272;10.794;2023-02-04T12:56:09;97269.13;;;5.60;69.37
10978;BME280;5542;48.272;10.794;2023-02-04T12:58:35;97266.19;;;5.63;67.47
10978;BME280;5542;48.272;10.794;2023-02-04T13:01:02;97265.34;;;5.55;68.48
10978;BME280;5542;48.272;10.794;2023-02-04T13:03:29;97272.88;;;5.66;68.87
10978;BME280;5542;48.272;10.794;2023-02-04T13:05:57;97278.56;;;5.53;67.83
10978;BME280;5542;48.272;10.794;2023-02-04T13:08:23;97275.78;;;5.55;67.26
10978;BME280;5542;48.272;10.794;2023-02-04T13:10:50;97279.91;;;5.74;67.54
10978;BME280;5542;48.272;10.794;2023-02-04T13:13:17;97276.97;;;5.69;66.43